• Join FlightAware (Why Join?)
  • Login
  • US Flag 
12:05AM EDT


 

Airport Tracker/Info


-or-


 

Live Flight TrackerFlight Track Log ✈ N304LG ✈ 12-Sep-2013 ✈ KABQ - KGEU

Flight Track Log - Related Links

Times and Time Zones

All times are in EDT time to prevent confusion due to time zone crossing. See the N304LG flight status page for this flight to view local times or setup timezone preferences in your user account.

Time Position Orientation Groundspeed Altitude Reporting Facility
EDT Latitude Longitude Course Direction KTS MPH feet Rate Location/Type
11:44AM 35.0469 -106.5992 342° North 138 159 6,000  Level Albuquerque Center
11:45AM 35.0764 -106.6108 342° North 163 188 6,600 660 Climbing Albuquerque Center
11:46AM 35.1144 -106.6469 322° Northwest 176 203 7,300 840 Climbing Albuquerque Center
11:47AM 35.1144 -106.7075 270° West 177 204 8,400 960 Climbing Albuquerque Center
11:48AM 35.0994 -106.7633 252° West 173 199 9,400 960 Climbing Albuquerque Center
11:49AM 35.0808 -106.8306 251° West 174 200 10,400 840 Climbing Albuquerque Center
11:50AM 35.0650 -106.8911 252° West 176 203 11,200 720 Climbing Albuquerque Center
11:51AM 35.0528 -106.9417 254° West 183 211 11,900 780 Climbing Albuquerque Center
11:52AM 35.0383 -107.0139 256° West 183 211 12,900 840 Climbing Albuquerque Center
11:53AM 35.0375 -107.0811 269° West 197 227 13,700 780 Climbing Albuquerque Center
11:54AM 35.0364 -107.1481 269° West 193 222 14,600 780 Climbing Albuquerque Center
11:55AM 35.0353 -107.2122 269° West 195 224 15,400 780 Climbing Albuquerque Center
11:56AM 35.0364 -107.2758 271° West 188 216 16,300 720 Climbing Albuquerque Center
11:57AM 35.0378 -107.3394 272° West 187 215 17,000 720 Climbing Albuquerque Center
11:58AM 35.0386 -107.4058 271° West 194 223 17,800 660 Climbing Albuquerque Center
11:59AM 35.0425 -107.4839 274° West 193 222 18,400 600 Climbing Albuquerque Center
12:00PM 35.0456 -107.5472 273° West 189 217 19,100 600 Climbing Albuquerque Center
12:01PM 35.0486 -107.6081 274° West 184 212 19,700 600 Climbing Albuquerque Center
12:02PM 35.0503 -107.6689 272° West 180 207 20,400 540 Climbing Albuquerque Center
12:04PM 35.0517 -107.7297 272° West 180 207 20,900 240 Climbing Albuquerque Center
12:05PM 35.0517 -107.7939 270° West 185 213 21,000  Climbing Albuquerque Center
12:06PM 35.0553 -107.8769 273° West 200 230 21,000  Level Albuquerque Center
12:07PM 35.0556 -107.9467 270° West 205 236 21,000  Level Albuquerque Center
12:08PM 35.0544 -108.0178 269° West 208 239 21,000  Level Albuquerque Center
12:09PM 35.0567 -108.0906 272° West 212 244 21,000  Level Albuquerque Center
12:10PM 35.0567 -108.1708 270° West 214 246 21,000  Level Albuquerque Center
12:11PM 35.0578 -108.2403 271° West 213 245 21,000  Level Albuquerque Center
12:12PM 35.0625 -108.3225 274° West 217 250 21,000  Level Albuquerque Center
12:13PM 35.0619 -108.3908 269° West 213 245 21,000  Level Albuquerque Center
12:14PM 35.0633 -108.4739 271° West 217 250 21,000  Level Albuquerque Center
12:15PM 35.0644 -108.5439 271° West 217 250 21,000  Level Albuquerque Center
12:16PM 35.0658 -108.6269 271° West 218 251 21,000  Level Albuquerque Center
12:17PM 35.0658 -108.6981 270° West 219 252 21,000  Level Albuquerque Center
12:18PM 35.0661 -108.7686 270° West 217 250 21,000  Level Albuquerque Center
12:19PM 35.0669 -108.8525 271° West 220 253 21,000  Level Albuquerque Center
12:20PM 35.0681 -108.9228 271° West 218 251 21,000  Level Albuquerque Center
12:21PM 35.0681 -109.0061 270° West 219 252 21,000  Level Albuquerque Center
12:22PM 35.0683 -109.0783 270° West 220 253 21,000  Level Albuquerque Center
12:23PM 35.0692 -109.1608 271° West 219 252 21,000  Level Albuquerque Center
12:24PM 35.0686 -109.2331 269° West 220 253 21,000  Level Albuquerque Center
12:25PM 35.0692 -109.3164 270° West 220 253 21,000  Level Albuquerque Center
12:26PM 35.0694 -109.3892 270° West 222 255 21,000  Level Albuquerque Center
12:27PM 35.0694 -109.4606 270° West 221 254 21,000  Level Albuquerque Center
12:28PM 35.0697 -109.5450 270° West 222 255 21,000  Level Albuquerque Center
12:29PM 35.0697 -109.6156 270° West 220 253 21,000  Level Albuquerque Center
12:30PM 35.0692 -109.6986 270° West 219 252 21,000  Level Albuquerque Center
12:31PM 35.0697 -109.7703 271° West 220 253 21,000  Level Albuquerque Center
12:32PM 35.0694 -109.8536 270° West 220 253 21,000  Level Albuquerque Center
12:34PM 35.0700 -109.9256 271° West 220 253 21,000  Level Albuquerque Center
12:35PM 35.0686 -110.0086 269° West 220 253 21,000  Level Albuquerque Center
12:36PM 35.0686 -110.0803 270° West 220 253 21,000  Level Albuquerque Center
12:37PM 35.0697 -110.1667 271° West 225 259 21,000  Level Albuquerque Center
12:38PM 35.0694 -110.2383 270° West 224 258 21,000  Level Albuquerque Center
12:39PM 35.0686 -110.3083 269° West 220 253 21,000  Level Albuquerque Center
12:40PM 35.0678 -110.3911 269° West 218 251 21,000  Level Albuquerque Center
12:41PM 35.0656 -110.4631 268° West 220 253 21,000  Level Albuquerque Center
12:42PM 35.0289 -110.5308 237° Southwest 220 253 21,000  Level Albuquerque Center
12:43PM 34.9969 -110.5869 235° Southwest 212 244 21,000  Level Albuquerque Center
12:44PM 34.9575 -110.6533 234° Southwest 214 246 21,000  Level Albuquerque Center
12:45PM 34.9236 -110.7097 234° Southwest 216 249 21,000  Level Albuquerque Center
12:46PM 34.8897 -110.7658 234° Southwest 217 250 21,000  Level Albuquerque Center
12:47PM 34.8483 -110.8369 235° Southwest 216 249 21,000  Level Albuquerque Center
12:48PM 34.8136 -110.8958 234° Southwest 215 247 21,000 -240 Level Albuquerque Center
12:49PM 34.7794 -110.9583 236° Southwest 221 254 20,500 -540 Descending Albuquerque Center
12:50PM 34.7394 -111.0225 233° Southwest 233 268 19,900 -540 Descending Albuquerque Center
12:51PM 34.7017 -111.0864 234° Southwest 235 270 19,500 -420 Descending Albuquerque Center
12:52PM 34.6647 -111.1478 234° Southwest 229 264 19,100 -660 Descending Albuquerque Center
12:53PM 34.6181 -111.2267 234° Southwest 237 273 18,200 -660 Descending Albuquerque Center
12:54PM 34.5800 -111.2922 235° Southwest 239 275 17,800 -600 Descending Albuquerque Center
12:55PM 34.5408 -111.3564 233° Southwest 238 274 17,000 -960 Descending Albuquerque Center
12:56PM 34.5031 -111.4211 235° Southwest 236 272 15,800 -1,020 Descending Albuquerque Center
12:57PM 34.4642 -111.4856 234° Southwest 236 272 15,000 -840 Descending Albuquerque Center
12:58PM 34.4242 -111.5506 233° Southwest 239 275 14,100 -840 Descending Albuquerque Center
12:59PM 34.3778 -111.6294 235° Southwest 241 277 13,300 -720 Descending Albuquerque Center
01:00PM 34.3397 -111.6922 234° Southwest 235 270 12,700 -660 Descending Albuquerque Center
01:01PM 34.3014 -111.7558 234° Southwest 235 270 12,000 -720 Descending Albuquerque Center
01:02PM 34.2628 -111.8194 234° Southwest 236 272 11,300 -480 Descending Albuquerque Center
01:03PM 34.2247 -111.8811 233° Southwest 233 268 11,000 -300 Descending Albuquerque Center
01:05PM 34.1664 -111.9231 211° Southwest 232 267 10,700 -540 Descending Albuquerque Center
01:06PM 34.1028 -111.9289 184° South 231 266 10,000 -840 Descending Albuquerque Center
01:07PM 34.0367 -111.9333 183° South 240 276 9,000 -900 Descending Albuquerque Center
01:08PM 33.9739 -111.9456 189° South 234 269 8,200 -840 Descending Albuquerque Center
01:09PM 33.9300 -112.0017 227° Southwest 231 266 7,300 -960 Descending Albuquerque Center
01:10PM 33.8794 -112.0703 228° Southwest 231 266 6,300 -960 Descending Albuquerque Center
01:11PM 33.8375 -112.1289 229° Southwest 231 266 5,400 -780 Descending Albuquerque Center
01:11PM 33.8081 -112.1733 231° Southwest 227 261 5,000 -420 Descending Albuquerque Center
01:12PM 33.7981 -112.1867 228° Southwest 225 259 5,000 -180 Level Albuquerque Center
01:13PM 33.7608 -112.2292 224° Southwest 199 229 4,800 -300 Descending Albuquerque Center
01:14PM 33.7086 -112.2325 183° South 187 215 4,400 -540 Descending Albuquerque Center
01:15PM 33.6539 -112.2422 188° South 197 227 3,700 -720 Descending Albuquerque Center
01:15PM 33.6269 -112.2478 190° South 190 219 3,500 -420 Descending Albuquerque Center
01:16PM 33.5928 -112.2447 176° South 182 209 3,300 -420 Descending Albuquerque Center
01:16PM 33.5803 -112.2494 197° South 153 176 3,100 -600 Descending Albuquerque Center
01:17PM 33.5428 -112.2667 201° Southwest 138 159 2,600 -480 Descending Albuquerque Center
01:18PM 33.5186 -112.2750 196° South 139 160 2,300 -480 Descending Albuquerque Center
01:18PM 33.5031 -112.2819 200° South 131 151 2,100 -780 Descending Albuquerque Center
01:19PM 33.4933 -112.2997 237° Southwest 133 153 1,600 -600 Descending Albuquerque Center
01:19PM 33.4947 -112.2975 53° Northeast 139 160 1,700 -540 Climbing Albuquerque Center
01:20PM 33.5208 -112.2978 359° North 114 131 1,100 -600 Descending Albuquerque Center
01:20PM 33.5222 -112.2961 45° Northeast 126 145 1,100  Level Albuquerque Center
01:22PM 33.5269 -112.2951 North  Level Estimated
01:29PM 33.5269 -112.2951 North  Level Estimated
01:30PM 33.5269 -112.2951 North  Level Estimated
01:31PM 33.5269 -112.2951 North  Level Estimated
01:32PM 33.5269 -112.2951 North  Level Estimated
01:33PM 33.5269 -112.2951 North  Level Estimated
01:34PM 33.5269 -112.2951 North  Level Estimated